sensor_id;sensor_type;location;lat;lon;timestamp;pressure;altitude;pressure_sealevel;temperature
74485;BMP280;62942;52.462;10.846;2022-12-10T00:00:27;100080;;;
74485;BMP280;62942;52.462;10.846;2022-12-10T00:01:27;100080;;;
74485;BMP280;62942;52.462;10.846;2022-12-10T00:02:37;100080;;;
74485;BMP280;62942;52.462;10.846;2022-12-10T00:03:47;100080;;;
74485;BMP280;62942;52.462;10.846;2022-12-10T00:04:47;100090;;;
74485;BMP280;62942;52.462;10.846;2022-12-10T00:05:59;100080;;;
74485;BMP280;62942;52.462;10.846;2022-12-10T00:07:07;100070;;;
74485;BMP280;62942;52.462;10.846;2022-12-10T00:08:17;100070;;;
74485;BMP280;62942;52.462;10.846;2022-12-10T00:09:27;100080;;;
74485;BMP280;62942;52.462;10.846;2022-12-10T00:10:27;100080;;;
74485;BMP280;62942;52.462;10.846;2022-12-10T00:11:37;100070;;;
74485;BMP280;62942;52.462;10.846;2022-12-10T00:12:37;100080;;;
74485;BMP280;62942;52.462;10.846;2022-12-10T00:13:37;100070;;;
74485;BMP280;62942;52.462;10.846;2022-12-10T00:14:47;100070;;;
74485;BMP280;62942;52.462;10.846;2022-12-10T00:15:47;100070;;;
74485;BMP280;62942;52.462;10.846;2022-12-10T00:16:47;100070;;;
74485;BMP280;62942;52.462;10.846;2022-12-10T00:17:57;100080;;;
74485;BMP280;62942;52.462;10.846;2022-12-10T00:19:07;100070;;;
74485;BMP280;62942;52.462;10.846;2022-12-10T00:20:17;100080;;;
74485;BMP280;62942;52.462;10.846;2022-12-10T00:21:18;100090;;;
74485;BMP280;62942;52.462;10.846;2022-12-10T00:22:17;100090;;;
74485;BMP280;62942;52.462;10.846;2022-12-10T00:23:27;100090;;;
74485;BMP280;62942;52.462;10.846;2022-12-10T00:24:27;100090;;;
74485;BMP280;62942;52.462;10.846;2022-12-10T00:25:37;100100;;;
74485;BMP280;62942;52.462;10.846;2022-12-10T00:26:37;100090;;;
74485;BMP280;62942;52.462;10.846;2022-12-10T00:27:47;100100;;;
74485;BMP280;62942;52.462;10.846;2022-12-10T00:28:47;100090;;;
74485;BMP280;62942;52.462;10.846;2022-12-10T00:29:47;100090;;;
74485;BMP280;62942;52.462;10.846;2022-12-10T00:31:01;100100;;;
74485;BMP280;62942;52.462;10.846;2022-12-10T00:32:07;100100;;;
74485;BMP280;62942;52.462;10.846;2022-12-10T00:33:07;100080;;;
74485;BMP280;62942;52.462;10.846;2022-12-10T00:34:07;100090;;;
74485;BMP280;62942;52.462;10.846;2022-12-10T00:35:17;100080;;;
74485;BMP280;62942;52.462;10.846;2022-12-10T00:36:18;100090;;;
74485;BMP280;62942;52.462;10.846;2022-12-10T00:37:27;100090;;;
74485;BMP280;62942;52.462;10.846;2022-12-10T00:38:27;100090;;;
74485;BMP280;62942;52.462;10.846;2022-12-10T00:39:27;100090;;;
74485;BMP280;62942;52.462;10.846;2022-12-10T00:40:37;100090;;;
74485;BMP280;62942;52.462;10.846;2022-12-10T00:41:37;100090;;;
74485;BMP280;62942;52.462;10.846;2022-12-10T00:42:47;100090;;;
74485;BMP280;62942;52.462;10.846;2022-12-10T00:43:47;100090;;;
74485;BMP280;62942;52.462;10.846;2022-12-10T00:44:57;100090;;;
74485;BMP280;62942;52.462;10.846;2022-12-10T00:45:57;100090;;;
74485;BMP280;62942;52.462;10.846;2022-12-10T00:47:07;100090;;;
74485;BMP280;62942;52.462;10.846;2022-12-10T00:48:07;100090;;;
74485;BMP280;62942;52.462;10.846;2022-12-10T00:49:17;100090;;;
74485;BMP280;62942;52.462;10.846;2022-12-10T00:50:27;100090;;;
74485;BMP280;62942;52.462;10.846;2022-12-10T00:51:37;100100;;;
74485;BMP280;62942;52.462;10.846;2022-12-10T00:52:37;100090;;;
74485;BMP280;62942;52.462;10.846;2022-12-10T00:53:37;100090;;;
74485;BMP280;62942;52.462;10.846;2022-12-10T00:54:47;100090;;;
74485;BMP280;62942;52.462;10.846;2022-12-10T00:55:47;100090;;;
74485;BMP280;62942;52.462;10.846;2022-12-10T00:56:57;100090;;;
74485;BMP280;62942;52.462;10.846;2022-12-10T00:58:07;100100;;;
74485;BMP280;62942;52.462;10.846;2022-12-10T00:59:07;100090;;;
74485;BMP280;62942;52.462;10.846;2022-12-10T01:00:07;100090;;;
74485;BMP280;62942;52.462;10.846;2022-12-10T01:01:18;100100;;;
74485;BMP280;62942;52.462;10.846;2022-12-10T01:02:27;100100;;;
74485;BMP280;62942;52.462;10.846;2022-12-10T01:03:27;100100;;;
74485;BMP280;62942;52.462;10.846;2022-12-10T01:04:37;100100;;;
74485;BMP280;62942;52.462;10.846;2022-12-10T01:05:37;100110;;;
74485;BMP280;62942;52.462;10.846;2022-12-10T01:06:47;100110;;;
74485;BMP280;62942;52.462;10.846;2022-12-10T01:07:47;100100;;;
74485;BMP280;62942;52.462;10.846;2022-12-10T01:08:57;100110;;;
74485;BMP280;62942;52.462;10.846;2022-12-10T01:10:07;100110;;;
74485;BMP280;62942;52.462;10.846;2022-12-10T01:11:07;100110;;;
74485;BMP280;62942;52.462;10.846;2022-12-10T01:12:17;100110;;;
74485;BMP280;62942;52.462;10.846;2022-12-10T01:13:17;100110;;;
74485;BMP280;62942;52.462;10.846;2022-12-10T01:14:18;100110;;;
74485;BMP280;62942;52.462;10.846;2022-12-10T01:15:27;100110;;;
74485;BMP280;62942;52.462;10.846;2022-12-10T01:16:27;100110;;;
74485;BMP280;62942;52.462;10.846;2022-12-10T01:17:37;100110;;;
74485;BMP280;62942;52.462;10.846;2022-12-10T01:18:47;100110;;;
74485;BMP280;62942;52.462;10.846;2022-12-10T01:19:47;100110;;;
74485;BMP280;62942;52.462;10.846;2022-12-10T01:20:59;100110;;;
74485;BMP280;62942;52.462;10.846;2022-12-10T01:21:57;100110;;;
74485;BMP280;62942;52.462;10.846;2022-12-10T01:23:07;100110;;;
74485;BMP280;62942;52.462;10.846;2022-12-10T01:24:07;100110;;;
74485;BMP280;62942;52.462;10.846;2022-12-10T01:25:17;100110;;;
74485;BMP280;62942;52.462;10.846;2022-12-10T01:26:18;100120;;;
74485;BMP280;62942;52.462;10.846;2022-12-10T01:27:27;100120;;;
74485;BMP280;62942;52.462;10.846;2022-12-10T01:28:28;100120;;;
74485;BMP280;62942;52.462;10.846;2022-12-10T01:29:37;100110;;;
74485;BMP280;62942;52.462;10.846;2022-12-10T01:30:37;100120;;;
74485;BMP280;62942;52.462;10.846;2022-12-10T01:31:37;100120;;;
74485;BMP280;62942;52.462;10.846;2022-12-10T01:32:37;100120;;;
74485;BMP280;62942;52.462;10.846;2022-12-10T01:33:37;100110;;;
74485;BMP280;62942;52.462;10.846;2022-12-10T01:34:47;100110;;;
74485;BMP280;62942;52.462;10.846;2022-12-10T01:35:47;100110;;;
74485;BMP280;62942;52.462;10.846;2022-12-10T01:36:57;100110;;;
74485;BMP280;62942;52.462;10.846;2022-12-10T01:37:57;100110;;;
74485;BMP280;62942;52.462;10.846;2022-12-10T01:39:07;100120;;;
74485;BMP280;62942;52.462;10.846;2022-12-10T01:40:07;100120;;;
74485;BMP280;62942;52.462;10.846;2022-12-10T01:41:18;100110;;;
74485;BMP280;62942;52.462;10.846;2022-12-10T01:42:17;100120;;;
74485;BMP280;62942;52.462;10.846;2022-12-10T01:43:17;100110;;;
74485;BMP280;62942;52.462;10.846;2022-12-10T01:45:00;100120;;;
74485;BMP280;62942;52.462;10.846;2022-12-10T01:45:27;100110;;;
74485;BMP280;62942;52.462;10.846;2022-12-10T01:46:27;100110;;;
74485;BMP280;62942;52.462;10.846;2022-12-10T01:47:37;100110;;;
74485;BMP280;62942;52.462;10.846;2022-12-10T01:48:37;100100;;;
74485;BMP280;62942;52.462;10.846;2022-12-10T01:49:37;100110;;;
74485;BMP280;62942;52.462;10.846;2022-12-10T01:50:47;100100;;;
74485;BMP280;62942;52.462;10.846;2022-12-10T01:51:48;100110;;;
74485;BMP280;62942;52.462;10.846;2022-12-10T01:52:57;100110;;;
74485;BMP280;62942;52.462;10.846;2022-12-10T01:54:08;100120;;;
74485;BMP280;62942;52.462;10.846;2022-12-10T01:55:50;100120;;;
74485;BMP280;62942;52.462;10.846;2022-12-10T01:56:27;100110;;;
74485;BMP280;62942;52.462;10.846;2022-12-10T01:57:27;100120;;;
74485;BMP280;62942;52.462;10.846;2022-12-10T01:58:37;100110;;;
74485;BMP280;62942;52.462;10.846;2022-12-10T01:59:37;100120;;;
74485;BMP280;62942;52.462;10.846;2022-12-10T02:00:51;100110;;;
74485;BMP280;62942;52.462;10.846;2022-12-10T02:01:58;100120;;;
74485;BMP280;62942;52.462;10.846;2022-12-10T02:02:59;100110;;;
74485;BMP280;62942;52.462;10.846;2022-12-10T02:04:10;100110;;;
74485;BMP280;62942;52.462;10.846;2022-12-10T02:05:10;100110;;;
74485;BMP280;62942;52.462;10.846;2022-12-10T02:06:22;100110;;;
74485;BMP280;62942;52.462;10.846;2022-12-10T02:07:18;100110;;;
74485;BMP280;62942;52.462;10.846;2022-12-10T02:08:27;100110;;;
74485;BMP280;62942;52.462;10.846;2022-12-10T02:09:28;100110;;;
74485;BMP280;62942;52.462;10.846;2022-12-10T02:10:41;100110;;;
74485;BMP280;62942;52.462;10.846;2022-12-10T02:11:38;100110;;;
74485;BMP280;62942;52.462;10.846;2022-12-10T02:12:48;100110;;;
74485;BMP280;62942;52.462;10.846;2022-12-10T02:13:49;100110;;;
74485;BMP280;62942;52.462;10.846;2022-12-10T02:14:58;100110;;;
74485;BMP280;62942;52.462;10.846;2022-12-10T02:16:08;100110;;;
74485;BMP280;62942;52.462;10.846;2022-12-10T02:17:07;100120;;;
74485;BMP280;62942;52.462;10.846;2022-12-10T02:18:18;100120;;;
74485;BMP280;62942;52.462;10.846;2022-12-10T02:19:31;100110;;;
74485;BMP280;62942;52.462;10.846;2022-12-10T02:20:28;100120;;;
74485;BMP280;62942;52.462;10.846;2022-12-10T02:21:38;100120;;;
74485;BMP280;62942;52.462;10.846;2022-12-10T02:22:38;100120;;;
74485;BMP280;62942;52.462;10.846;2022-12-10T02:23:47;100110;;;
74485;BMP280;62942;52.462;10.846;2022-12-10T02:24:47;100110;;;
74485;BMP280;62942;52.462;10.846;2022-12-10T02:25:59;100110;;;
74485;BMP280;62942;52.462;10.846;2022-12-10T02:27:09;100120;;;
74485;BMP280;62942;52.462;10.846;2022-12-10T02:28:17;100110;;;
74485;BMP280;62942;52.462;10.846;2022-12-10T02:29:17;100110;;;
74485;BMP280;62942;52.462;10.846;2022-12-10T02:30:27;100110;;;
74485;BMP280;62942;52.462;10.846;2022-12-10T02:31:28;100110;;;
74485;BMP280;62942;52.462;10.846;2022-12-10T02:32:37;100110;;;
74485;BMP280;62942;52.462;10.846;2022-12-10T02:33:48;100100;;;
74485;BMP280;62942;52.462;10.846;2022-12-10T02:34:57;100110;;;
74485;BMP280;62942;52.462;10.846;2022-12-10T02:35:57;100110;;;
74485;BMP280;62942;52.462;10.846;2022-12-10T02:37:08;100110;;;
74485;BMP280;62942;52.462;10.846;2022-12-10T02:38:07;100110;;;
74485;BMP280;62942;52.462;10.846;2022-12-10T02:39:07;100100;;;
74485;BMP280;62942;52.462;10.846;2022-12-10T02:40:18;100110;;;
74485;BMP280;62942;52.462;10.846;2022-12-10T02:41:18;100100;;;
74485;BMP280;62942;52.462;10.846;2022-12-10T02:42:17;100100;;;
74485;BMP280;62942;52.462;10.846;2022-12-10T02:43:17;100110;;;
74485;BMP280;62942;52.462;10.846;2022-12-10T02:44:27;100100;;;
74485;BMP280;62942;52.462;10.846;2022-12-10T02:45:37;100100;;;
74485;BMP280;62942;52.462;10.846;2022-12-10T02:46:47;100100;;;
74485;BMP280;62942;52.462;10.846;2022-12-10T02:47:47;100100;;;
74485;BMP280;62942;52.462;10.846;2022-12-10T02:48:57;100100;;;
74485;BMP280;62942;52.462;10.846;2022-12-10T02:49:57;100100;;;
74485;BMP280;62942;52.462;10.846;2022-12-10T02:50:57;100100;;;
74485;BMP280;62942;52.462;10.846;2022-12-10T02:52:07;100100;;;
74485;BMP280;62942;52.462;10.846;2022-12-10T02:53:07;100100;;;
74485;BMP280;62942;52.462;10.846;2022-12-10T02:54:33;100100;;;
74485;BMP280;62942;52.462;10.846;2022-12-10T02:55:26;100100;;;
74485;BMP280;62942;52.462;10.846;2022-12-10T02:56:29;100100;;;
74485;BMP280;62942;52.462;10.846;2022-12-10T02:57:28;100100;;;
74485;BMP280;62942;52.462;10.846;2022-12-10T02:58:40;100100;;;
74485;BMP280;62942;52.462;10.846;2022-12-10T02:59:38;100100;;;
74485;BMP280;62942;52.462;10.846;2022-12-10T03:00:48;100100;;;
74485;BMP280;62942;52.462;10.846;2022-12-10T03:01:48;100100;;;
74485;BMP280;62942;52.462;10.846;2022-12-10T03:03:02;100100;;;
74485;BMP280;62942;52.462;10.846;2022-12-10T03:03:58;100100;;;
74485;BMP280;62942;52.462;10.846;2022-12-10T03:05:09;100100;;;
74485;BMP280;62942;52.462;10.846;2022-12-10T03:06:18;100110;;;
74485;BMP280;62942;52.462;10.846;2022-12-10T03:07:18;100110;;;
74485;BMP280;62942;52.462;10.846;2022-12-10T03:08:17;100110;;;
74485;BMP280;62942;52.462;10.846;2022-12-10T03:09:27;100110;;;
74485;BMP280;62942;52.462;10.846;2022-12-10T03:10:37;100100;;;
74485;BMP280;62942;52.462;10.846;2022-12-10T03:11:36;100110;;;
74485;BMP280;62942;52.462;10.846;2022-12-10T03:12:47;100110;;;
74485;BMP280;62942;52.462;10.846;2022-12-10T03:13:48;100110;;;
74485;BMP280;62942;52.462;10.846;2022-12-10T03:14:57;100110;;;
74485;BMP280;62942;52.462;10.846;2022-12-10T03:16:07;100110;;;
74485;BMP280;62942;52.462;10.846;2022-12-10T03:17:07;100110;;;
74485;BMP280;62942;52.462;10.846;2022-12-10T03:18:07;100120;;;
74485;BMP280;62942;52.462;10.846;2022-12-10T03:19:17;100110;;;
74485;BMP280;62942;52.462;10.846;2022-12-10T03:20:16;100110;;;
74485;BMP280;62942;52.462;10.846;2022-12-10T03:21:16;100120;;;
74485;BMP280;62942;52.462;10.846;2022-12-10T03:22:17;100110;;;
74485;BMP280;62942;52.462;10.846;2022-12-10T03:23:26;100120;;;
74485;BMP280;62942;52.462;10.846;2022-12-10T03:24:36;100120;;;
74485;BMP280;62942;52.462;10.846;2022-12-10T03:25:36;100120;;;
74485;BMP280;62942;52.462;10.846;2022-12-10T03:26:47;100110;;;
74485;BMP280;62942;52.462;10.846;2022-12-10T03:27:56;100110;;;
74485;BMP280;62942;52.462;10.846;2022-12-10T03:29:07;100110;;;
74485;BMP280;62942;52.462;10.846;2022-12-10T03:30:07;100110;;;
74485;BMP280;62942;52.462;10.846;2022-12-10T03:31:16;100110;;;
74485;BMP280;62942;52.462;10.846;2022-12-10T03:32:17;100120;;;
74485;BMP280;62942;52.462;10.846;2022-12-10T03:33:26;100110;;;
74485;BMP280;62942;52.462;10.846;2022-12-10T03:34:36;100110;;;
74485;BMP280;62942;52.462;10.846;2022-12-10T03:35:36;100110;;;
74485;BMP280;62942;52.462;10.846;2022-12-10T03:36:47;100110;;;
74485;BMP280;62942;52.462;10.846;2022-12-10T03:37:56;100110;;;
74485;BMP280;62942;52.462;10.846;2022-12-10T03:39:06;100110;;;
74485;BMP280;62942;52.462;10.846;2022-12-10T03:40:17;100110;;;
74485;BMP280;62942;52.462;10.846;2022-12-10T03:41:26;100110;;;
74485;BMP280;62942;52.462;10.846;2022-12-10T03:42:37;100110;;;
74485;BMP280;62942;52.462;10.846;2022-12-10T03:43:51;100110;;;
74485;BMP280;62942;52.462;10.846;2022-12-10T03:44:48;100100;;;
74485;BMP280;62942;52.462;10.846;2022-12-10T03:45:56;100110;;;
74485;BMP280;62942;52.462;10.846;2022-12-10T03:46:56;100110;;;
74485;BMP280;62942;52.462;10.846;2022-12-10T03:48:06;100110;;;
74485;BMP280;62942;52.462;10.846;2022-12-10T03:49:06;100110;;;
74485;BMP280;62942;52.462;10.846;2022-12-10T03:50:16;100110;;;
74485;BMP280;62942;52.462;10.846;2022-12-10T03:51:17;100110;;;
74485;BMP280;62942;52.462;10.846;2022-12-10T03:52:26;100110;;;
74485;BMP280;62942;52.462;10.846;2022-12-10T03:53:26;100110;;;
74485;BMP280;62942;52.462;10.846;2022-12-10T03:54:26;100090;;;
74485;BMP280;62942;52.462;10.846;2022-12-10T03:55:36;100100;;;
74485;BMP280;62942;52.462;10.846;2022-12-10T03:56:36;100120;;;
74485;BMP280;62942;52.462;10.846;2022-12-10T03:57:46;100120;;;
74485;BMP280;62942;52.462;10.846;2022-12-10T03:58:47;100110;;;
74485;BMP280;62942;52.462;10.846;2022-12-10T03:59:56;100110;;;
74485;BMP280;62942;52.462;10.846;2022-12-10T04:01:06;100120;;;
74485;BMP280;62942;52.462;10.846;2022-12-10T04:02:06;100120;;;
74485;BMP280;62942;52.462;10.846;2022-12-10T04:03:06;100120;;;
74485;BMP280;62942;52.462;10.846;2022-12-10T04:04:06;100110;;;
74485;BMP280;62942;52.462;10.846;2022-12-10T04:05:16;100110;;;
74485;BMP280;62942;52.462;10.846;2022-12-10T04:06:26;100120;;;
74485;BMP280;62942;52.462;10.846;2022-12-10T04:07:26;100120;;;
74485;BMP280;62942;52.462;10.846;2022-12-10T04:08:36;100120;;;
74485;BMP280;62942;52.462;10.846;2022-12-10T04:09:46;100120;;;
74485;BMP280;62942;52.462;10.846;2022-12-10T04:10:46;100120;;;
74485;BMP280;62942;52.462;10.846;2022-12-10T04:11:46;100120;;;
74485;BMP280;62942;52.462;10.846;2022-12-10T04:12:56;100120;;;
74485;BMP280;62942;52.462;10.846;2022-12-10T04:13:56;100110;;;
74485;BMP280;62942;52.462;10.846;2022-12-10T04:15:07;100120;;;
74485;BMP280;62942;52.462;10.846;2022-12-10T04:16:07;100120;;;
74485;BMP280;62942;52.462;10.846;2022-12-10T04:17:16;100120;;;
74485;BMP280;62942;52.462;10.846;2022-12-10T04:18:26;100120;;;
74485;BMP280;62942;52.462;10.846;2022-12-10T04:19:36;100120;;;
74485;BMP280;62942;52.462;10.846;2022-12-10T04:20:36;100120;;;
74485;BMP280;62942;52.462;10.846;2022-12-10T04:21:46;100120;;;
74485;BMP280;62942;52.462;10.846;2022-12-10T04:22:46;100110;;;
74485;BMP280;62942;52.462;10.846;2022-12-10T04:23:46;100120;;;
74485;BMP280;62942;52.462;10.846;2022-12-10T04:24:56;100120;;;
74485;BMP280;62942;52.462;10.846;2022-12-10T04:25:56;100120;;;
74485;BMP280;62942;52.462;10.846;2022-12-10T04:27:07;100130;;;
74485;BMP280;62942;52.462;10.846;2022-12-10T04:28:16;100130;;;
74485;BMP280;62942;52.462;10.846;2022-12-10T04:29:27;100110;;;
74485;BMP280;62942;52.462;10.846;2022-12-10T04:30:26;100120;;;
74485;BMP280;62942;52.462;10.846;2022-12-10T04:31:36;100120;;;
74485;BMP280;62942;52.462;10.846;2022-12-10T04:32:36;100120;;;
74485;BMP280;62942;52.462;10.846;2022-12-10T04:33:46;100110;;;
74485;BMP280;62942;52.462;10.846;2022-12-10T04:34:46;100110;;;
74485;BMP280;62942;52.462;10.846;2022-12-10T04:35:56;100120;;;
74485;BMP280;62942;52.462;10.846;2022-12-10T04:36:57;100120;;;
74485;BMP280;62942;52.462;10.846;2022-12-10T04:38:06;100120;;;
74485;BMP280;62942;52.462;10.846;2022-12-10T04:39:06;100120;;;
74485;BMP280;62942;52.462;10.846;2022-12-10T04:40:16;100110;;;
74485;BMP280;62942;52.462;10.846;2022-12-10T04:41:16;100120;;;
74485;BMP280;62942;52.462;10.846;2022-12-10T04:42:26;100110;;;
74485;BMP280;62942;52.462;10.846;2022-12-10T04:43:26;100130;;;
74485;BMP280;62942;52.462;10.846;2022-12-10T04:44:36;100130;;;
74485;BMP280;62942;52.462;10.846;2022-12-10T04:45:36;100130;;;
74485;BMP280;62942;52.462;10.846;2022-12-10T04:46:47;100130;;;
74485;BMP280;62942;52.462;10.846;2022-12-10T04:47:46;100130;;;
74485;BMP280;62942;52.462;10.846;2022-12-10T04:48:56;100130;;;
74485;BMP280;62942;52.462;10.846;2022-12-10T04:49:56;100120;;;
74485;BMP280;62942;52.462;10.846;2022-12-10T04:50:56;100130;;;
74485;BMP280;62942;52.462;10.846;2022-12-10T04:52:07;100130;;;
74485;BMP280;62942;52.462;10.846;2022-12-10T04:53:06;100120;;;
74485;BMP280;62942;52.462;10.846;2022-12-10T04:54:07;100120;;;
74485;BMP280;62942;52.462;10.846;2022-12-10T04:55:16;100130;;;
74485;BMP280;62942;52.462;10.846;2022-12-10T04:56:16;100130;;;
74485;BMP280;62942;52.462;10.846;2022-12-10T04:57:26;100130;;;
74485;BMP280;62942;52.462;10.846;2022-12-10T04:58:26;100130;;;
74485;BMP280;62942;52.462;10.846;2022-12-10T04:59:26;100130;;;
74485;BMP280;62942;52.462;10.846;2022-12-10T05:00:36;100130;;;
74485;BMP280;62942;52.462;10.846;2022-12-10T05:01:36;100130;;;
74485;BMP280;62942;52.462;10.846;2022-12-10T05:02:36;100130;;;
74485;BMP280;62942;52.462;10.846;2022-12-10T05:03:46;100130;;;
74485;BMP280;62942;52.462;10.846;2022-12-10T05:04:47;100130;;;
74485;BMP280;62942;52.462;10.846;2022-12-10T05:05:59;100130;;;
74485;BMP280;62942;52.462;10.846;2022-12-10T05:06:56;100130;;;
74485;BMP280;62942;52.462;10.846;2022-12-10T05:08:06;100130;;;
74485;BMP280;62942;52.462;10.846;2022-12-10T05:09:06;100130;;;
74485;BMP280;62942;52.462;10.846;2022-12-10T05:10:16;100130;;;
74485;BMP280;62942;52.462;10.846;2022-12-10T05:11:17;100130;;;
74485;BMP280;62942;52.462;10.846;2022-12-10T05:12:16;100120;;;
74485;BMP280;62942;52.462;10.846;2022-12-10T05:13:26;100120;;;
74485;BMP280;62942;52.462;10.846;2022-12-10T05:14:26;100130;;;
74485;BMP280;62942;52.462;10.846;2022-12-10T05:15:26;100120;;;
74485;BMP280;62942;52.462;10.846;2022-12-10T05:16:36;100120;;;
74485;BMP280;62942;52.462;10.846;2022-12-10T05:17:36;100110;;;
74485;BMP280;62942;52.462;10.846;2022-12-10T05:18:46;100110;;;
74485;BMP280;62942;52.462;10.846;2022-12-10T05:19:46;100120;;;
74485;BMP280;62942;52.462;10.846;2022-12-10T05:20:57;100120;;;
74485;BMP280;62942;52.462;10.846;2022-12-10T05:22:07;100120;;;
74485;BMP280;62942;52.462;10.846;2022-12-10T05:23:16;100120;;;
74485;BMP280;62942;52.462;10.846;2022-12-10T05:24:17;100110;;;
74485;BMP280;62942;52.462;10.846;2022-12-10T05:25:26;100120;;;
74485;BMP280;62942;52.462;10.846;2022-12-10T05:26:36;100120;;;
74485;BMP280;62942;52.462;10.846;2022-12-10T05:27:46;100120;;;
74485;BMP280;62942;52.462;10.846;2022-12-10T05:28:47;100120;;;
74485;BMP280;62942;52.462;10.846;2022-12-10T05:29:46;100120;;;
74485;BMP280;62942;52.462;10.846;2022-12-10T05:30:57;100120;;;
74485;BMP280;62942;52.462;10.846;2022-12-10T05:31:56;100120;;;
74485;BMP280;62942;52.462;10.846;2022-12-10T05:33:06;100120;;;
74485;BMP280;62942;52.462;10.846;2022-12-10T05:34:06;100120;;;
74485;BMP280;62942;52.462;10.846;2022-12-10T05:35:07;100120;;;
74485;BMP280;62942;52.462;10.846;2022-12-10T05:36:17;100120;;;
74485;BMP280;62942;52.462;10.846;2022-12-10T05:37:26;100130;;;
74485;BMP280;62942;52.462;10.846;2022-12-10T05:38:36;100120;;;
74485;BMP280;62942;52.462;10.846;2022-12-10T05:39:36;100120;;;
74485;BMP280;62942;52.462;10.846;2022-12-10T05:40:46;100120;;;
74485;BMP280;62942;52.462;10.846;2022-12-10T05:41:46;100120;;;
74485;BMP280;62942;52.462;10.846;2022-12-10T05:42:56;100120;;;
74485;BMP280;62942;52.462;10.846;2022-12-10T05:43:57;100120;;;
74485;BMP280;62942;52.462;10.846;2022-12-10T05:45:07;100120;;;
74485;BMP280;62942;52.462;10.846;2022-12-10T05:46:07;100120;;;
74485;BMP280;62942;52.462;10.846;2022-12-10T05:47:16;100120;;;
74485;BMP280;62942;52.462;10.846;2022-12-10T05:48:26;100140;;;
74485;BMP280;62942;52.462;10.846;2022-12-10T05:49:36;100140;;;
74485;BMP280;62942;52.462;10.846;2022-12-10T05:50:36;100130;;;
74485;BMP280;62942;52.462;10.846;2022-12-10T05:51:46;100130;;;
74485;BMP280;62942;52.462;10.846;2022-12-10T05:52:46;100130;;;
74485;BMP280;62942;52.462;10.846;2022-12-10T05:53:57;100140;;;
74485;BMP280;62942;52.462;10.846;2022-12-10T05:54:56;100140;;;
74485;BMP280;62942;52.462;10.846;2022-12-10T05:55:59;100130;;;
74485;BMP280;62942;52.462;10.846;2022-12-10T05:57:06;100140;;;
74485;BMP280;62942;52.462;10.846;2022-12-10T05:58:06;100140;;;
74485;BMP280;62942;52.462;10.846;2022-12-10T05:59:16;100140;;;
74485;BMP280;62942;52.462;10.846;2022-12-10T06:00:16;100140;;;
74485;BMP280;62942;52.462;10.846;2022-12-10T06:01:17;100140;;;
74485;BMP280;62942;52.462;10.846;2022-12-10T06:02:26;100140;;;
74485;BMP280;62942;52.462;10.846;2022-12-10T06:03:26;100140;;;
74485;BMP280;62942;52.462;10.846;2022-12-10T06:04:36;100140;;;
74485;BMP280;62942;52.462;10.846;2022-12-10T06:05:36;100140;;;
74485;BMP280;62942;52.462;10.846;2022-12-10T06:06:46;100140;;;
74485;BMP280;62942;52.462;10.846;2022-12-10T06:07:46;100140;;;
74485;BMP280;62942;52.462;10.846;2022-12-10T06:08:56;100140;;;
74485;BMP280;62942;52.462;10.846;2022-12-10T06:10:06;100140;;;
74485;BMP280;62942;52.462;10.846;2022-12-10T06:11:07;100140;;;
74485;BMP280;62942;52.462;10.846;2022-12-10T06:12:16;100150;;;
74485;BMP280;62942;52.462;10.846;2022-12-10T06:13:26;100150;;;
74485;BMP280;62942;52.462;10.846;2022-12-10T06:14:26;100150;;;
74485;BMP280;62942;52.462;10.846;2022-12-10T06:15:38;100150;;;
74485;BMP280;62942;52.462;10.846;2022-12-10T06:16:36;100150;;;
74485;BMP280;62942;52.462;10.846;2022-12-10T06:17:46;100140;;;
74485;BMP280;62942;52.462;10.846;2022-12-10T06:18:56;100150;;;
74485;BMP280;62942;52.462;10.846;2022-12-10T06:19:56;100140;;;
74485;BMP280;62942;52.462;10.846;2022-12-10T06:21:07;100150;;;
74485;BMP280;62942;52.462;10.846;2022-12-10T06:22:16;100150;;;
74485;BMP280;62942;52.462;10.846;2022-12-10T06:23:16;100150;;;
74485;BMP280;62942;52.462;10.846;2022-12-10T06:24:26;100160;;;
74485;BMP280;62942;52.462;10.846;2022-12-10T06:25:26;100150;;;
74485;BMP280;62942;52.462;10.846;2022-12-10T06:26:26;100160;;;
74485;BMP280;62942;52.462;10.846;2022-12-10T06:27:36;100160;;;
74485;BMP280;62942;52.462;10.846;2022-12-10T06:28:46;100160;;;
74485;BMP280;62942;52.462;10.846;2022-12-10T06:29:46;100160;;;
74485;BMP280;62942;52.462;10.846;2022-12-10T06:30:57;100160;;;
74485;BMP280;62942;52.462;10.846;2022-12-10T06:32:06;100160;;;
74485;BMP280;62942;52.462;10.846;2022-12-10T06:33:06;100160;;;
74485;BMP280;62942;52.462;10.846;2022-12-10T06:34:16;100170;;;
74485;BMP280;62942;52.462;10.846;2022-12-10T06:35:16;100170;;;
74485;BMP280;62942;52.462;10.846;2022-12-10T06:36:26;100150;;;
74485;BMP280;62942;52.462;10.846;2022-12-10T06:37:26;100150;;;
74485;BMP280;62942;52.462;10.846;2022-12-10T06:38:26;100160;;;
74485;BMP280;62942;52.462;10.846;2022-12-10T06:39:36;100160;;;
74485;BMP280;62942;52.462;10.846;2022-12-10T06:40:38;100160;;;
74485;BMP280;62942;52.462;10.846;2022-12-10T06:41:36;100150;;;
74485;BMP280;62942;52.462;10.846;2022-12-10T06:42:36;100150;;;
74485;BMP280;62942;52.462;10.846;2022-12-10T06:43:46;100160;;;
74485;BMP280;62942;52.462;10.846;2022-12-10T06:44:46;100160;;;
74485;BMP280;62942;52.462;10.846;2022-12-10T06:45:56;100160;;;
74485;BMP280;62942;52.462;10.846;2022-12-10T06:47:06;100170;;;
74485;BMP280;62942;52.462;10.846;2022-12-10T06:48:06;100170;;;
74485;BMP280;62942;52.462;10.846;2022-12-10T06:49:06;100170;;;
74485;BMP280;62942;52.462;10.846;2022-12-10T06:50:06;100170;;;
74485;BMP280;62942;52.462;10.846;2022-12-10T06:51:16;100160;;;